Time;durP1;ratioP1;P1;durP2;ratioP2;P2;SDS_P1;SDS_P2;PMS_P1;PMS_P2;Temp;Humidity;BMP_temperature;BMP_pressure;BME280_temperature;BME280_humidity;BME280_pressure;Samples;Min_cycle;Max_cycle;Signal;HPM_P1;HPM_P2
2022/03/14 00:00:46;;;;;;;18.90;8.67;;;;;;;-145.69;52.59;72154.63;5073765;28;20252;-76
2022/03/14 00:03:13;;;;;;;18.33;7.40;;;;;;;-145.69;53.15;72156.63;5073766;28;20198;-76
2022/03/14 00:05:40;;;;;;;24.50;8.53;;;;;;;-145.69;55.77;72180.50;5073602;28;20260;-76
2022/03/14 00:08:08;;;;;;;18.13;7.90;;;;;;;-145.69;55.02;72186.47;5073283;28;20226;-76
2022/03/14 00:10:35;;;;;;;22.27;8.70;;;;;;;-145.69;53.89;72172.53;5073243;28;20688;-76
2022/03/14 00:13:03;;;;;;;18.63;8.30;;;;;;;-145.69;54.26;72190.47;5073189;28;20199;-76
2022/03/14 00:15:30;;;;;;;20.77;8.83;;;;;;;-145.69;53.67;72138.72;5072307;28;20203;-76
2022/03/14 00:18:01;;;;;;;24.60;10.70;;;;;;;-145.69;54.32;72106.88;5073112;28;20261;-76
2022/03/14 00:20:28;;;;;;;23.27;9.23;;;;;;;-145.69;51.45;72122.78;5073296;28;20203;-76
2022/03/14 00:22:56;;;;;;;19.30;8.47;;;;;;;-145.69;51.38;72128.75;5073327;28;20198;-76
2022/03/14 00:25:24;;;;;;;23.87;11.03;;;;;;;-145.69;52.96;72102.88;5073213;28;20202;-76
2022/03/14 00:27:51;;;;;;;26.70;10.93;;;;;;;-145.69;53.74;72106.88;5073420;28;20230;-77
2022/03/14 00:30:17;;;;;;;26.77;12.47;;;;;;;-145.69;55.38;72094.94;5073324;28;20194;-76
2022/03/14 00:32:44;;;;;;;29.90;13.60;;;;;;;-145.69;56.20;72106.88;5073085;28;20206;-77
2022/03/14 00:35:11;;;;;;;32.20;12.90;;;;;;;-145.69;58.74;72110.84;5073110;28;20199;-76
2022/03/14 00:37:40;;;;;;;31.97;13.63;;;;;;;-145.69;60.89;72106.88;5072951;28;20198;-76
2022/03/14 00:40:11;;;;;;;34.60;13.93;;;;;;;-145.69;62.13;72114.81;5073213;28;20195;-76
2022/03/14 00:42:39;;;;;;;30.40;13.90;;;;;;;-145.69;62.92;72114.81;5073019;28;20225;-76
2022/03/14 00:45:07;;;;;;;32.47;13.93;;;;;;;-145.69;64.24;72118.81;5073018;28;20202;-76
2022/03/14 00:47:36;;;;;;;34.13;15.17;;;;;;;-145.69;64.28;72134.72;5072030;28;20226;-77
2022/03/14 00:50:02;;;;;;;37.00;15.33;;;;;;;-145.69;66.41;72134.72;5072738;28;20199;-77
2022/03/14 00:52:29;;;;;;;37.50;15.47;;;;;;;-145.69;66.57;72140.69;5072934;28;20221;-77
2022/03/14 00:54:55;;;;;;;36.37;15.50;;;;;;;-145.69;66.53;72146.69;5072759;28;20195;-77
2022/03/14 00:57:22;;;;;;;35.67;14.57;;;;;;;-145.69;66.62;72146.69;5072747;28;20198;-76
2022/03/14 00:59:49;;;;;;;36.07;15.47;;;;;;;-145.69;66.56;72148.66;5072693;28;20199;-77
2022/03/14 01:02:16;;;;;;;39.27;15.60;;;;;;;-145.69;66.68;72154.63;5072690;28;20199;-77
2022/03/14 01:04:45;;;;;;;34.30;15.47;;;;;;;-145.69;67.12;72150.66;5072773;28;20194;-76
2022/03/14 01:07:11;;;;;;;35.27;14.50;;;;;;;-145.69;67.21;72154.63;5072944;28;20210;-77
2022/03/14 01:09:38;;;;;;;31.13;14.13;;;;;;;-145.69;69.66;72152.66;5072811;28;20206;-76
2022/03/14 01:12:05;;;;;;;38.53;14.90;;;;;;;-145.69;69.02;72160.59;5072944;28;20210;-76
2022/03/14 01:14:32;;;;;;;42.20;16.47;;;;;;;-145.69;71.13;72170.56;5072582;28;20230;-76
2022/03/14 01:17:03;;;;;;;38.17;17.03;;;;;;;-145.69;71.13;72174.53;5072740;28;20205;-76
2022/03/14 01:19:32;;;;;;;37.20;15.37;;;;;;;-145.69;72.31;72180.50;5071823;28;20195;-76
2022/03/14 01:21:58;;;;;;;34.93;15.40;;;;;;;-145.69;72.03;72190.47;5072825;28;20198;-77
2022/03/14 01:24:25;;;;;;;39.17;15.57;;;;;;;-145.69;72.68;72194.44;5072714;28;20210;-76
2022/03/14 01:26:52;;;;;;;32.83;14.87;;;;;;;-145.69;73.10;72208.38;5072799;28;20229;-77
2022/03/14 01:29:22;;;;;;;37.10;16.37;;;;;;;-145.69;74.24;72212.34;5072503;28;20226;-76
2022/03/14 01:31:50;;;;;;;36.93;15.97;;;;;;;-145.69;75.24;72222.31;5072540;28;20206;-77
2022/03/14 01:34:19;;;;;;;35.97;15.93;;;;;;;-145.69;76.48;72222.31;5072649;28;20285;-77
2022/03/14 01:36:45;;;;;;;39.70;16.40;;;;;;;-145.69;76.46;72230.25;5072647;28;20202;-77
2022/03/14 01:39:11;;;;;;;32.47;14.77;;;;;;;-145.69;76.60;72236.22;5072704;28;20293;-77
2022/03/14 01:41:38;;;;;;;28.87;14.13;;;;;;;-145.69;77.28;72236.22;5072607;28;20206;-76
2022/03/14 01:44:05;;;;;;;22.13;10.30;;;;;;;-145.69;79.24;72250.16;5072370;28;20666;-77
2022/03/14 01:46:32;;;;;;;24.83;10.73;;;;;;;-145.69;82.38;72272.06;5069279;28;20196;-76
2022/03/14 01:49:00;;;;;;;15.60;7.50;;;;;;;-145.69;88.05;72297.94;5071798;28;20219;-77
2022/03/14 01:51:29;;;;;;;13.63;6.80;;;;;;;-145.69;94.13;72337.75;5072427;28;20252;-76
2022/03/14 01:53:55;;;;;;;14.87;7.23;;;;;;;-145.69;96.25;72367.59;5072305;28;20348;-76
2022/03/14 01:56:23;;;;;;;15.40;6.77;;;;;;;-145.69;100.00;72391.47;5072363;28;20576;-76
2022/03/14 01:58:52;;;;;;;16.97;7.30;;;;;;;-145.69;100.00;72409.38;5073080;28;20199;-75
2022/03/14 02:01:19;;;;;;;15.20;7.13;;;;;;;-145.69;100.00;72429.28;5076057;28;20245;-75
2022/03/14 02:03:46;;;;;;;15.43;6.90;;;;;;;-145.69;100.00;72451.19;5076055;28;20570;-76
2022/03/14 02:06:13;;;;;;;16.30;7.23;;;;;;;-145.69;100.00;72465.13;5075928;28;20194;-76
2022/03/14 02:08:41;;;;;;;15.83;7.53;;;;;;;-145.69;100.00;72481.03;5075799;28;20230;-76
2022/03/14 02:11:07;;;;;;;23.27;8.37;;;;;;;-145.69;100.00;72493.00;5075753;28;20209;-76
2022/03/14 02:13:37;;;;;;;15.40;7.00;;;;;;;-145.69;100.00;72508.91;5075509;28;20322;-76
2022/03/14 02:16:03;;;;;;;16.70;6.93;;;;;;;-145.69;100.00;72518.88;5075795;28;20206;-76
2022/03/14 02:18:30;;;;;;;11.93;5.83;;;;;;;-145.69;100.00;72524.84;5075260;28;20676;-76
2022/03/14 02:20:58;;;;;;;12.53;5.60;;;;;;;-145.69;100.00;72532.78;5075548;28;20677;-76
2022/03/14 02:23:24;;;;;;;12.33;6.10;;;;;;;-145.69;100.00;72520.84;5075594;28;20203;-76
2022/03/14 02:25:55;;;;;;;14.80;5.77;;;;;;;-145.69;100.00;72528.81;5075548;28;20199;-76
2022/03/14 02:28:23;;;;;;;14.17;6.43;;;;;;;-145.69;100.00;72526.81;5075260;28;20249;-76
2022/03/14 02:30:50;;;;;;;9.47;5.20;;;;;;;-145.69;100.00;72528.81;5075492;28;20237;-76
2022/03/14 02:33:17;;;;;;;11.87;5.33;;;;;;;-145.69;100.00;72524.84;5075515;28;20203;-76
2022/03/14 02:35:44;;;;;;;9.30;4.33;;;;;;;-145.69;100.00;72532.78;5075560;28;20195;-76
2022/03/14 02:38:14;;;;;;;5.17;2.40;;;;;;;-145.69;100.00;72526.81;5075323;28;20205;-76
2022/03/14 02:40:45;;;;;;;4.87;2.37;;;;;;;-145.69;100.00;72534.78;5075047;28;20202;-76
2022/03/14 02:43:15;;;;;;;2.30;1.60;;;;;;;-145.69;100.00;72518.88;5075414;28;20210;-76
2022/03/14 02:45:43;;;;;;;2.90;1.60;;;;;;;-145.69;100.00;72536.78;5075330;28;20673;-76
2022/03/14 02:48:10;;;;;;;2.83;1.70;;;;;;;-145.69;100.00;72544.75;5074920;28;20229;-76
2022/03/14 02:50:42;;;;;;;2.33;1.57;;;;;;;-145.69;100.00;72542.75;5074863;28;20203;-76
2022/03/14 02:53:13;;;;;;;2.10;1.10;;;;;;;-145.69;100.00;72532.78;5075055;28;20202;-75
2022/03/14 02:55:40;;;;;;;3.03;1.10;;;;;;;-145.69;100.00;72544.75;5075091;28;20210;-76
2022/03/14 02:58:07;;;;;;;2.63;1.20;;;;;;;-145.69;100.00;72554.69;5074828;28;20203;-76
2022/03/14 03:00:35;;;;;;;1.93;1.40;;;;;;;-145.69;100.00;72562.66;5075071;28;20202;-76
2022/03/14 03:03:02;;;;;;;2.07;1.17;;;;;;;-145.69;100.00;72574.59;5074825;28;20252;-76
2022/03/14 03:05:31;;;;;;;4.03;1.70;;;;;;;-145.69;100.00;72580.56;5074629;28;20199;-76
2022/03/14 03:08:00;;;;;;;2.57;1.50;;;;;;;-145.69;100.00;72592.50;5074436;28;20219;-75
2022/03/14 03:10:29;;;;;;;2.07;1.20;;;;;;;-145.69;100.00;72606.44;5073821;28;20231;-76
2022/03/14 03:12:59;;;;;;;2.10;1.37;;;;;;;-145.69;100.00;72618.38;5074605;28;20234;-76
2022/03/14 03:15:25;;;;;;;2.40;1.30;;;;;;;-145.69;100.00;72618.38;5074787;28;20205;-76
2022/03/14 03:17:52;;;;;;;1.47;1.20;;;;;;;-145.69;100.00;72620.38;5074480;28;20715;-76
2022/03/14 03:20:19;;;;;;;2.50;1.63;;;;;;;-145.69;100.00;72618.38;5074365;28;20209;-77
2022/03/14 03:22:46;;;;;;;1.97;1.43;;;;;;;-145.69;100.00;72612.41;5074356;28;20207;-76
2022/03/14 03:25:17;;;;;;;0.83;0.80;;;;;;;-145.69;100.00;72612.41;5074516;28;20203;-76
2022/03/14 03:27:45;;;;;;;1.47;0.87;;;;;;;-145.69;100.00;72604.44;5074513;28;20206;-76
2022/03/14 03:30:12;;;;;;;0.63;0.60;;;;;;;-145.69;100.00;72606.44;5074365;28;20205;-76
2022/03/14 03:32:39;;;;;;;1.13;0.80;;;;;;;-145.69;100.00;72624.34;5074300;28;20202;-76
2022/03/14 03:35:06;;;;;;;1.00;0.90;;;;;;;-145.69;100.00;72636.31;5074305;28;20624;-76
2022/03/14 03:37:33;;;;;;;1.33;1.00;;;;;;;-145.69;100.00;72640.28;5074126;28;20743;-76
2022/03/14 03:39:59;;;;;;;1.27;1.07;;;;;;;-145.69;100.00;72654.22;5073965;28;20203;-76
2022/03/14 03:42:26;;;;;;;1.80;1.10;;;;;;;-145.69;100.00;72662.19;5074075;28;20214;-76
2022/03/14 03:44:54;;;;;;;1.40;1.00;;;;;;;-145.69;100.00;72658.19;5057131;28;20203;-75
2022/03/14 03:47:22;;;;;;;2.13;1.30;;;;;;;-145.69;100.00;72680.09;5053931;28;20207;-76
2022/03/14 03:49:48;;;;;;;1.63;1.30;;;;;;;-145.69;100.00;72686.06;5053874;28;20227;-76
2022/03/14 03:52:15;;;;;;;2.20;1.10;;;;;;;-145.69;100.00;72684.06;5054006;28;20203;-76
2022/03/14 03:54:44;;;;;;;1.20;1.10;;;;;;;-145.69;100.00;72694.03;5053905;28;20200;-76
2022/03/14 03:57:12;;;;;;;1.30;1.20;;;;;;;-145.69;100.00;72707.97;5053814;28;20199;-76
2022/03/14 03:59:38;;;;;;;4.23;1.80;;;;;;;-145.69;100.00;72709.94;5053658;28;20203;-76
2022/03/14 04:02:08;;;;;;;1.67;1.30;;;;;;;-145.69;100.00;72717.91;5053707;28;20820;-76
2022/03/14 04:04:37;;;;;;;2.10;1.30;;;;;;;-145.69;100.00;72719.91;5053860;28;20199;-75
2022/03/14 04:07:16;;;;;;;1.30;1.00;;;;;;;-145.69;100.00;72715.91;5053897;28;20199;-75
2022/03/14 04:09:49;;;;;;;1.20;0.80;;;;;;;-145.69;100.00;72709.94;5069487;28;20226;-76
2022/03/14 04:12:17;;;;;;;1.93;0.70;;;;;;;-145.69;100.00;72713.94;5073409;28;20203;-76
2022/03/14 04:14:44;;;;;;;0.90;0.70;;;;;;;-145.69;100.00;72707.97;5073216;28;20230;-76
2022/03/14 04:17:12;;;;;;;0.60;0.60;;;;;;;-145.69;100.00;72705.97;5073474;28;20199;-76
2022/03/14 04:19:41;;;;;;;1.10;0.60;;;;;;;-145.69;100.00;72700.00;5072198;28;20442;-75
2022/03/14 04:22:08;;;;;;;0.70;0.60;;;;;;;-145.69;100.00;72700.00;5073157;28;20205;-76
2022/03/14 04:24:37;;;;;;;0.83;0.50;;;;;;;-145.69;100.00;72696.00;5073457;28;20198;-76
2022/03/14 04:27:09;;;;;;;0.83;0.67;;;;;;;-145.69;100.00;72703.97;5073265;28;20198;-76
2022/03/14 04:29:36;;;;;;;0.60;0.60;;;;;;;-145.69;100.00;72709.94;5073397;28;20238;-76
2022/03/14 04:32:02;;;;;;;3.40;0.63;;;;;;;-145.69;100.00;72711.94;5073481;28;20202;-76
2022/03/14 04:34:30;;;;;;;0.50;0.50;;;;;;;-145.69;100.00;72715.91;5073304;28;20639;-75
2022/03/14 04:36:59;;;;;;;0.60;0.50;;;;;;;-145.69;100.00;72707.97;5073195;28;20206;-76
2022/03/14 04:39:25;;;;;;;0.40;0.40;;;;;;;-145.69;100.00;72725.88;5072798;28;20199;-76
2022/03/14 04:41:53;;;;;;;0.60;0.60;;;;;;;-145.69;100.00;72737.81;5072968;28;20226;-76
2022/03/14 04:44:21;;;;;;;0.40;0.40;;;;;;;-145.69;100.00;72727.88;5073011;28;20194;-76
2022/03/14 04:46:48;;;;;;;0.50;0.50;;;;;;;-145.69;100.00;72727.88;5073117;28;20202;-75
2022/03/14 04:49:15;;;;;;;0.43;0.43;;;;;;;-145.69;100.00;72753.75;5072948;28;20225;-76
2022/03/14 04:51:43;;;;;;;3.03;0.60;;;;;;;-145.69;100.00;72765.69;5072979;28;20591;-76
2022/03/14 04:54:12;;;;;;;0.57;0.57;;;;;;;-145.69;100.00;72781.59;5072790;28;20199;-76
2022/03/14 04:56:38;;;;;;;1.20;0.67;;;;;;;-145.69;100.00;72787.56;5073176;28;20217;-76
2022/03/14 04:59:05;;;;;;;1.40;0.80;;;;;;;-145.69;100.00;72795.53;5072955;28;20214;-76
2022/03/14 05:01:31;;;;;;;3.33;1.30;;;;;;;-145.69;100.00;72807.47;5073059;28;20281;-76
2022/03/14 05:03:58;;;;;;;4.20;1.47;;;;;;;-145.69;100.00;72809.47;5072861;28;20205;-76
2022/03/14 05:06:24;;;;;;;0.60;0.60;;;;;;;-145.69;100.00;72809.47;5072912;28;20202;-76
2022/03/14 05:08:52;;;;;;;2.30;1.40;;;;;;;-145.69;100.00;72809.47;5072663;28;20234;-76
2022/03/14 05:11:19;;;;;;;2.23;1.50;;;;;;;-145.69;100.00;72813.47;5072957;28;20268;-76
2022/03/14 05:13:46;;;;;;;2.23;1.50;;;;;;;-145.69;100.00;72815.44;5072681;28;20234;-76
2022/03/14 05:16:12;;;;;;;2.47;1.60;;;;;;;-145.69;100.00;72823.41;5072797;28;20207;-77
2022/03/14 05:18:39;;;;;;;1.90;1.10;;;;;;;-145.69;100.00;72823.41;5072854;28;20616;-76
2022/03/14 05:21:08;;;;;;;1.33;0.90;;;;;;;-145.69;100.00;72813.47;5072672;28;20190;-76
2022/03/14 05:23:35;;;;;;;1.13;0.90;;;;;;;-145.69;100.00;72815.44;5072828;28;20209;-76
2022/03/14 05:26:03;;;;;;;1.17;0.70;;;;;;;-145.69;100.00;72815.44;5072760;28;20199;-76
2022/03/14 05:28:29;;;;;;;0.70;0.70;;;;;;;-145.69;100.00;72823.41;5072572;28;20252;-76
2022/03/14 05:30:58;;;;;;;0.50;0.50;;;;;;;-145.69;100.00;72825.41;5072772;28;20248;-76
2022/03/14 05:33:25;;;;;;;1.13;0.80;;;;;;;-145.69;100.00;72829.38;5072994;28;20199;-76
2022/03/14 05:35:54;;;;;;;0.40;0.40;;;;;;;-145.69;100.00;72827.38;5076808;28;20592;-76
2022/03/14 05:38:23;;;;;;;0.47;0.47;;;;;;;-145.69;100.00;72827.38;5076333;28;20195;-77
2022/03/14 05:40:51;;;;;;;0.43;0.43;;;;;;;-145.69;100.00;72833.38;5076618;28;20682;-76
2022/03/14 05:43:21;;;;;;;0.67;0.60;;;;;;;-145.69;100.00;72827.38;5076412;28;20226;-76
2022/03/14 05:45:52;;;;;;;0.37;0.37;;;;;;;-145.69;100.00;72833.38;5061386;28;20206;-76
2022/03/14 05:48:19;;;;;;;0.60;0.50;;;;;;;-145.69;100.00;72841.31;5056673;28;20207;-76
2022/03/14 05:50:47;;;;;;;0.50;0.50;;;;;;;-145.69;100.00;72847.28;5056427;28;20232;-76
2022/03/14 05:53:14;;;;;;;0.73;0.53;;;;;;;-145.69;100.00;72857.25;5056312;28;20617;-76
2022/03/14 05:55:40;;;;;;;1.23;0.50;;;;;;;-145.69;100.00;72875.16;5056253;28;20566;-76
2022/03/14 05:58:07;;;;;;;0.60;0.60;;;;;;;-145.69;100.00;72901.03;5056219;28;20570;-76
2022/03/14 06:00:36;;;;;;;0.53;0.53;;;;;;;-145.69;100.00;72899.06;5055885;28;20717;-76
2022/03/14 06:03:02;;;;;;;0.50;0.50;;;;;;;-145.69;100.00;72895.06;5056071;28;20199;-76
2022/03/14 06:05:29;;;;;;;0.50;0.50;;;;;;;-145.69;100.00;72901.03;5056121;28;20214;-75
2022/03/14 06:07:55;;;;;;;0.57;0.57;;;;;;;-145.69;100.00;72899.06;5058878;28;20194;-75
2022/03/14 06:10:22;;;;;;;0.50;0.50;;;;;;;-145.69;100.00;72889.09;5075887;28;20313;-76
2022/03/14 06:12:48;;;;;;;0.40;0.40;;;;;;;-145.69;100.00;72895.06;5075710;28;20203;-76
2022/03/14 06:15:16;;;;;;;0.40;0.40;;;;;;;-145.69;100.00;72889.09;5075598;28;20222;-76
2022/03/14 06:17:45;;;;;;;1.50;0.40;;;;;;;-145.69;100.00;72875.16;5075982;28;20608;-76
2022/03/14 06:20:15;;;;;;;0.50;0.50;;;;;;;-145.69;100.00;72867.19;5075900;28;20600;-75
2022/03/14 06:22:44;;;;;;;0.40;0.40;;;;;;;-145.69;100.00;72859.25;5075966;28;20199;-76
2022/03/14 06:25:11;;;;;;;1.80;0.50;;;;;;;-145.69;100.00;72857.25;5075696;28;20221;-75
2022/03/14 06:27:38;;;;;;;0.53;0.53;;;;;;;-145.69;100.00;72847.28;5075541;28;20241;-76
2022/03/14 06:30:09;;;;;;;0.77;0.60;;;;;;;-145.69;100.00;72827.38;5075750;28;20235;-76
2022/03/14 06:32:39;;;;;;;1.03;0.80;;;;;;;-145.69;100.00;72839.34;5075422;28;20198;-76
2022/03/14 06:35:09;;;;;;;0.93;0.50;;;;;;;-145.69;99.56;72845.31;5075515;28;20256;-76
2022/03/14 06:37:35;;;;;;;0.50;0.50;;;;;;;-145.69;100.00;72845.31;5075437;28;20205;-76
2022/03/14 06:40:03;;;;;;;0.63;0.50;;;;;;;-145.69;100.00;72849.28;5075255;28;20199;-76
2022/03/14 06:42:30;;;;;;;0.60;0.47;;;;;;;-145.69;100.00;72851.28;5075580;28;20320;-76
2022/03/14 06:44:59;;;;;;;0.60;0.50;;;;;;;-145.69;98.94;72835.34;5075450;28;20232;-76
2022/03/14 06:47:26;;;;;;;1.03;0.63;;;;;;;-145.69;100.00;72835.34;5075465;28;20205;-76
2022/03/14 06:49:52;;;;;;;2.43;1.10;;;;;;;-145.69;100.00;72833.38;5075167;28;20233;-76
2022/03/14 06:52:20;;;;;;;1.03;0.70;;;;;;;-145.69;100.00;72843.31;5075217;28;20207;-75
2022/03/14 06:54:46;;;;;;;2.20;1.27;;;;;;;-145.69;100.00;72835.34;5075052;28;20195;-76
2022/03/14 06:57:13;;;;;;;1.73;0.70;;;;;;;-145.69;99.79;72859.25;5075262;28;20198;-76
2022/03/14 06:59:39;;;;;;;0.83;0.60;;;;;;;-145.69;99.63;72871.19;5075158;28;20213;-77
2022/03/14 07:02:07;;;;;;;0.63;0.53;;;;;;;-145.69;100.00;72871.19;5074798;28;20195;-76
2022/03/14 07:04:34;;;;;;;0.87;0.70;;;;;;;-145.69;100.00;72875.16;5074781;28;20731;-76
2022/03/14 07:07:03;;;;;;;1.10;0.97;;;;;;;-145.69;100.00;72859.25;5074777;28;20210;-75
2022/03/14 07:09:31;;;;;;;0.77;0.70;;;;;;;-145.69;100.00;72843.31;5074646;28;20321;-76
2022/03/14 07:11:58;;;;;;;0.70;0.57;;;;;;;-145.69;98.22;72829.38;5075026;28;20241;-77
2022/03/14 07:14:24;;;;;;;1.00;0.67;;;;;;;-145.69;98.50;72819.44;5074545;28;20235;-76
2022/03/14 07:16:52;;;;;;;1.17;0.73;;;;;;;-145.69;97.73;72835.34;5074673;28;20195;-77
2022/03/14 07:19:22;;;;;;;1.77;0.60;;;;;;;-145.69;97.61;72827.38;5074560;28;20692;-76
2022/03/14 07:21:48;;;;;;;0.50;0.50;;;;;;;-145.69;97.58;72813.47;5074499;28;20225;-76
2022/03/14 07:24:14;;;;;;;1.77;0.90;;;;;;;-145.69;95.65;72787.56;5074474;28;20199;-76
2022/03/14 07:26:44;;;;;;;2.07;1.20;;;;;;;-145.69;95.52;72755.72;5074648;28;20203;-76
2022/03/14 07:29:11;;;;;;;3.10;1.20;;;;;;;-145.69;93.63;72729.84;5074447;28;20202;-76
2022/03/14 07:31:41;;;;;;;1.70;1.00;;;;;;;-145.69;93.84;72705.97;5074240;28;20203;-76
2022/03/14 07:34:08;;;;;;;1.90;0.83;;;;;;;-145.69;92.55;72700.00;5074042;28;20649;-76
2022/03/14 07:36:36;;;;;;;0.67;0.67;;;;;;;-145.69;91.08;72721.88;5073980;28;20210;-76
2022/03/14 07:39:04;;;;;;;0.83;0.50;;;;;;;-145.69;94.16;72763.69;5074173;28;20226;-76
2022/03/14 07:41:31;;;;;;;0.57;0.57;;;;;;;-145.69;92.83;72761.69;5074424;28;20194;-76
2022/03/14 07:44:02;;;;;;;0.50;0.50;;;;;;;-145.69;92.08;72759.72;5071296;28;20210;-77
2022/03/14 07:46:32;;;;;;;0.50;0.50;;;;;;;-145.69;90.86;72743.78;5054102;28;20265;-76
2022/03/14 07:48:58;;;;;;;1.40;0.80;;;;;;;-145.69;92.05;72733.84;5053869;28;20704;-77
2022/03/14 07:51:26;;;;;;;0.70;0.50;;;;;;;-145.69;93.26;72773.66;5053945;28;20637;-77
2022/03/14 07:53:53;;;;;;;0.50;0.50;;;;;;;-145.69;90.45;72753.75;5053999;28;20580;-77
2022/03/14 07:56:19;;;;;;;0.43;0.43;;;;;;;-145.69;91.33;72755.72;5053525;28;20200;-77
2022/03/14 07:58:46;;;;;;;1.40;0.57;;;;;;;-145.69;92.89;72751.75;5053956;28;20195;-77
2022/03/14 08:01:13;;;;;;;0.40;0.40;;;;;;;-145.69;92.44;72751.75;5058472;28;20554;-77
2022/03/14 08:03:40;;;;;;;0.60;0.60;;;;;;;-145.69;87.97;72773.66;5073886;28;20657;-76
2022/03/14 08:06:08;;;;;;;0.50;0.50;;;;;;;-145.69;88.02;72783.59;5073824;28;20534;-77
2022/03/14 08:08:34;;;;;;;1.03;0.60;;;;;;;-145.69;93.67;72735.81;5073544;28;20653;-76
2022/03/14 08:11:04;;;;;;;1.17;0.40;;;;;;;-145.69;90.98;72676.09;5073894;28;20631;-77
2022/03/14 08:13:31;;;;;;;0.70;0.50;;;;;;;-145.69;86.06;72656.22;5073503;28;20226;-77
2022/03/14 08:15:58;;;;;;;0.67;0.67;;;;;;;-145.69;87.25;72703.97;5073566;28;20589;-78
2022/03/14 08:18:26;;;;;;;0.93;0.50;;;;;;;-145.69;82.33;72670.13;5073759;28;20233;-78
2022/03/14 08:20:57;;;;;;;0.97;0.50;;;;;;;-145.69;83.29;72731.84;5073928;28;20210;-78
2022/03/14 08:23:23;;;;;;;1.63;0.60;;;;;;;-145.69;84.63;72743.78;5073357;28;20669;-78
2022/03/14 08:25:50;;;;;;;0.93;0.50;;;;;;;-145.69;84.74;72733.84;5073352;28;20210;-78
2022/03/14 08:28:16;;;;;;;0.77;0.60;;;;;;;-145.69;82.17;72733.84;5073374;28;20198;-77
2022/03/14 08:30:44;;;;;;;0.93;0.50;;;;;;;-145.69;82.50;72737.81;5072806;28;20629;-78
2022/03/14 08:33:11;;;;;;;1.80;0.70;;;;;;;-145.69;85.92;72747.78;5072976;28;20213;-78
2022/03/14 08:35:39;;;;;;;0.87;0.53;;;;;;;-145.69;87.54;72745.78;5073092;28;20202;-78
2022/03/14 08:38:06;;;;;;;1.90;0.53;;;;;;;-145.69;83.50;72749.75;5073381;28;20209;-77
2022/03/14 08:40:32;;;;;;;2.27;0.53;;;;;;;-145.69;83.94;72741.78;5073356;28;20260;-78
2022/03/14 08:42:59;;;;;;;0.57;0.50;;;;;;;-145.69;84.41;72767.69;5073314;28;20206;-78
2022/03/14 08:45:27;;;;;;;0.77;0.60;;;;;;;-145.69;81.59;72751.75;5073303;28;20232;-78
2022/03/14 08:47:54;;;;;;;0.50;0.50;;;;;;;-145.69;79.38;72751.75;5073423;28;20286;-78
2022/03/14 08:50:21;;;;;;;1.50;0.60;;;;;;;-145.69;79.44;72723.88;5073138;28;20233;-78
2022/03/14 08:52:49;;;;;;;3.30;0.60;;;;;;;-145.69;76.02;72701.97;5073185;28;20203;-78
2022/03/14 08:55:15;;;;;;;3.10;0.60;;;;;;;-145.69;77.21;72690.03;5073040;28;20209;-78
2022/03/14 08:57:43;;;;;;;3.17;0.60;;;;;;;-145.69;76.12;72692.03;5072862;28;20203;-79
2022/03/14 09:00:13;;;;;;;0.83;0.53;;;;;;;-145.69;76.25;72678.09;5073164;28;20203;-79
2022/03/14 09:02:40;;;;;;;1.37;0.60;;;;;;;-145.69;73.75;72682.09;5073011;28;20646;-78
2022/03/14 09:05:08;;;;;;;3.23;0.80;;;;;;;-145.69;75.59;72596.50;5072616;28;20683;-79
2022/03/14 09:07:34;;;;;;;2.53;0.50;;;;;;;-145.69;73.00;72512.91;5072917;28;20669;-78
2022/03/14 09:10:04;;;;;;;0.60;0.40;;;;;;;-145.69;71.84;72459.16;5075538;28;20222;-79
2022/03/14 09:12:33;;;;;;;2.03;0.67;;;;;;;-145.69;69.28;72429.28;5076968;28;20289;-79
2022/03/14 09:14:59;;;;;;;0.90;0.70;;;;;;;-145.69;70.24;72427.31;5076745;28;20230;-78
2022/03/14 09:17:26;;;;;;;2.00;0.77;;;;;;;-145.69;68.70;72500.94;5077020;28;20327;-79
2022/03/14 09:19:53;;;;;;;1.67;0.80;;;;;;;-145.69;71.37;72548.72;5076901;28;20260;-79
2022/03/14 09:22:19;;;;;;;2.63;0.60;;;;;;;-145.69;73.09;72644.25;5076928;28;20198;-78
2022/03/14 09:24:46;;;;;;;1.43;0.60;;;;;;;-145.69;75.86;72676.09;5076840;28;20203;-78
2022/03/14 09:27:15;;;;;;;3.23;0.80;;;;;;;-145.69;78.43;72795.53;5076967;28;20198;-79
2022/03/14 09:29:42;;;;;;;3.97;0.90;;;;;;;-145.69;80.68;72791.56;5076722;28;20592;-78
2022/03/14 09:32:08;;;;;;;1.23;0.63;;;;;;;-145.69;81.27;72801.50;5076959;28;20293;-77
2022/03/14 09:34:38;;;;;;;4.60;0.80;;;;;;;-145.69;81.42;72815.44;5076572;28;20237;-77
2022/03/14 09:37:06;;;;;;;5.40;0.90;;;;;;;-145.69;82.25;72791.56;5076583;28;20221;-78
2022/03/14 09:39:34;;;;;;;3.47;1.30;;;;;;;-145.69;79.91;72791.56;5076475;28;20233;-77
2022/03/14 09:42:04;;;;;;;2.00;0.87;;;;;;;-145.69;80.83;72755.72;5076193;28;20290;-77
2022/03/14 09:44:32;;;;;;;1.50;0.70;;;;;;;-145.69;78.09;72731.84;5076144;28;20682;-77
2022/03/14 09:47:01;;;;;;;3.70;0.97;;;;;;;-145.69;69.72;72727.88;5076361;28;20199;-77
2022/03/14 09:49:31;;;;;;;4.30;0.90;;;;;;;-145.69;74.83;72701.97;5076340;28;20243;-77
2022/03/14 09:52:00;;;;;;;3.27;0.80;;;;;;;-145.69;73.07;72656.22;5068663;28;20223;-79
2022/03/14 09:54:29;;;;;;;3.50;1.10;;;;;;;-145.69;72.36;72648.25;5056400;28;20299;-78
2022/03/14 09:56:57;;;;;;;3.53;0.90;;;;;;;-145.69;70.05;72644.25;5056295;28;20203;-77
2022/03/14 09:59:24;;;;;;;2.63;1.17;;;;;;;-145.69;66.30;72660.19;5056171;28;20199;-80
2022/03/14 10:01:54;;;;;;;2.80;0.93;;;;;;;-145.69;67.66;72644.25;5056133;28;20295;-79
2022/03/14 10:04:20;;;;;;;4.13;1.00;;;;;;;-145.69;70.30;72590.53;5055957;28;20291;-80
2022/03/14 10:06:47;;;;;;;1.77;0.93;;;;;;;-145.69;64.98;72556.69;5056163;28;20203;-80
2022/03/14 10:09:16;;;;;;;5.07;1.00;;;;;;;-145.69;62.54;72576.59;5055945;28;20207;-80
2022/03/14 10:11:43;;;;;;;2.43;1.13;;;;;;;-145.69;68.83;72576.59;5067655;28;20712;-79
2022/03/14 10:14:11;;;;;;;2.73;0.90;;;;;;;-145.69;70.21;72580.56;5075684;28;20244;-78
2022/03/14 10:16:39;;;;;;;6.60;1.00;;;;;;;-145.69;71.97;72596.50;5075763;28;20623;-79
2022/03/14 10:19:09;;;;;;;5.60;0.90;;;;;;;-145.69;68.69;72550.72;5075389;28;20637;-79
2022/03/14 10:21:38;;;;;;;3.33;0.90;;;;;;;-145.69;69.82;72588.53;5075599;28;20202;-80
2022/03/14 10:24:07;;;;;;;4.30;1.10;;;;;;;-145.69;67.96;72584.56;5075653;28;20206;-80
2022/03/14 10:26:37;;;;;;;4.53;1.10;;;;;;;-145.69;66.74;72572.59;5075719;28;20207;-80
2022/03/14 10:29:12;;;;;;;5.30;0.90;;;;;;;-145.69;67.25;72566.63;5075550;28;20327;-78
2022/03/14 10:31:40;;;;;;;3.40;0.80;;;;;;;-145.69;68.15;72648.25;5075563;28;20733;-77
2022/03/14 10:34:11;;;;;;;6.83;1.00;;;;;;;-145.69;67.21;72628.34;5075621;28;20199;-79
2022/03/14 10:36:45;;;;;;;4.47;0.90;;;;;;;-145.69;66.19;72620.38;5075576;28;20198;-79
2022/03/14 10:39:16;;;;;;;3.20;0.90;;;;;;;-145.69;64.79;72624.34;5075522;28;20198;-78
2022/03/14 10:41:45;;;;;;;2.50;0.80;;;;;;;-145.69;63.26;72620.38;5075075;28;20198;-79
2022/03/14 10:44:23;;;;;;;4.27;0.80;;;;;;;-145.69;65.11;72590.53;5075529;28;20206;-79
2022/03/14 10:46:49;;;;;;;2.37;0.90;;;;;;;-145.69;64.79;72634.31;5075408;28;20209;-79
2022/03/14 10:49:18;;;;;;;4.97;1.30;;;;;;;-145.69;65.57;72614.41;5075303;28;20207;-79
2022/03/14 10:51:54;;;;;;;2.70;0.77;;;;;;;-145.69;65.21;72610.44;5075076;28;20233;-79
2022/03/14 10:54:21;;;;;;;6.30;1.20;;;;;;;-145.69;63.59;72624.34;5075018;28;20202;-79
2022/03/14 10:57:02;;;;;;;5.40;0.90;;;;;;;-145.69;66.40;72628.34;5075326;28;20276;-79
2022/03/14 10:59:39;;;;;;;2.33;0.97;;;;;;;-145.69;66.38;72592.50;5075126;28;20199;-80
2022/03/14 11:02:09;;;;;;;5.77;1.20;;;;;;;-145.69;65.46;72612.41;5074829;28;20365;-80
2022/03/14 11:04:45;;;;;;;2.37;0.93;;;;;;;-145.69;68.72;72590.53;5074701;28;20201;-80
2022/03/14 11:07:13;;;;;;;4.37;1.23;;;;;;;-145.69;61.71;72576.59;5075139;28;20233;-80
2022/03/14 11:09:44;;;;;;;5.13;1.27;;;;;;;-145.69;63.42;72564.66;5074675;28;20697;-80
2022/03/14 11:12:12;;;;;;;1.73;1.00;;;;;;;-145.69;60.47;72552.69;5074739;28;20292;-80
2022/03/14 11:14:40;;;;;;;1.70;0.90;;;;;;;-145.69;61.03;72552.69;5074563;28;20239;-80